Time;durP1;ratioP1;P1;durP2;ratioP2;P2;SDS_P1;SDS_P2;PMS_P1;PMS_P2;Temp;Humidity;BMP_temperature;BMP_pressure;BME280_temperature;BME280_humidity;BME280_pressure;Samples;Min_cycle;Max_cycle;Signal;HPM_P1;HPM_P2
2023/01/29 00:02:21;;;;;;;60.35;31.40;;;4.60;99.90;;;;;;5095855;28;20234;-89
2023/01/29 00:04:47;;;;;;;59.83;31.03;;;4.50;99.90;;;;;;5096234;28;20267;-86
2023/01/29 00:07:13;;;;;;;60.90;31.50;;;4.60;99.90;;;;;;5102520;28;20504;-88
2023/01/29 00:09:39;;;;;;;58.27;33.63;;;4.60;99.90;;;;;;5109850;28;20220;-85
2023/01/29 00:12:06;;;;;;;62.53;32.73;;;4.70;99.90;;;;;;5098853;28;20460;-85
2023/01/29 00:14:32;;;;;;;59.70;31.65;;;4.70;99.90;;;;;;5099362;28;20416;-87
2023/01/29 00:16:57;;;;;;;64.67;31.57;;;4.70;99.90;;;;;;5117145;28;20179;-85
2023/01/29 00:19:23;;;;;;;60.50;32.23;;;4.70;99.90;;;;;;5116945;28;20570;-88
2023/01/29 00:21:48;;;;;;;66.53;31.87;;;4.70;99.90;;;;;;5098807;28;20245;-85
2023/01/29 00:24:14;;;;;;;59.27;31.63;;;4.70;99.90;;;;;;5098895;28;20663;-85
2023/01/29 00:26:41;;;;;;;64.20;33.00;;;4.80;99.90;;;;;;5098902;28;20176;-88
2023/01/29 00:29:07;;;;;;;53.67;29.42;;;4.70;99.90;;;;;;5117198;28;20195;-85
2023/01/29 00:31:32;;;;;;;51.70;29.87;;;4.70;99.90;;;;;;5116837;28;20176;-84
2023/01/29 00:33:58;;;;;;;55.67;29.80;;;4.80;99.90;;;;;;5098411;28;20203;-88
2023/01/29 00:36:25;;;;;;;57.73;29.93;;;4.80;99.90;;;;;;5117035;28;20461;-88
2023/01/29 00:38:57;;;;;;;55.38;30.05;;;4.80;99.90;;;;;;5098426;28;20199;-87
2023/01/29 00:46:56;;;;;;;48.90;27.08;;;4.70;99.90;;;;;;5116603;28;20163;-88
2023/01/29 00:49:22;;;;;;;46.27;27.80;;;4.70;99.90;;;;;;5115897;28;20168;-89
2023/01/29 00:52:22;;;;;;;53.23;27.97;;;4.70;99.90;;;;;;5116466;28;20315;-86
2023/01/29 00:54:33;;;;;;;55.28;28.80;;;4.70;99.90;;;;;;5116669;28;20979;-89
2023/01/29 00:57:00;;;;;;;49.83;29.40;;;4.70;99.90;;;;;;5116631;28;20236;-86
2023/01/29 00:59:26;;;;;;;51.47;27.52;;;4.70;99.90;;;;;;5098017;28;20437;-86
2023/01/29 01:04:35;;;;;;;51.67;27.67;;;4.60;99.90;;;;;;5116900;28;20228;-89
2023/01/29 01:07:01;;;;;;;41.67;25.03;;;4.60;99.90;;;;;;5098647;28;20180;-85
2023/01/29 01:12:11;;;;;;;48.05;24.13;;;4.60;99.90;;;;;;5116245;28;20291;-88
2023/01/29 01:14:37;;;;;;;39.00;22.10;;;4.60;99.90;;;;;;5097595;28;20180;-89
2023/01/29 01:17:02;;;;;;;39.67;21.67;;;4.60;99.90;;;;;;5115978;28;20626;-85
2023/01/29 01:19:28;;;;;;;41.40;21.27;;;4.60;99.90;;;;;;5097790;28;20272;-85
2023/01/29 01:21:53;;;;;;;32.60;20.10;;;4.60;99.90;;;;;;5097888;28;20180;-85
2023/01/29 01:24:19;;;;;;;36.67;20.80;;;4.60;99.90;;;;;;5115844;28;20323;-88
2023/01/29 01:26:45;;;;;;;37.47;20.87;;;4.50;99.90;;;;;;5115913;28;20637;-87
2023/01/29 01:29:11;;;;;;;37.50;19.85;;;4.50;99.90;;;;;;5116216;28;20624;-85
2023/01/29 01:31:37;;;;;;;34.35;19.90;;;4.50;99.90;;;;;;5117659;28;20655;-84
2023/01/29 01:34:03;;;;;;;37.60;21.67;;;4.60;99.90;;;;;;5121632;28;20199;-88
2023/01/29 01:36:31;;;;;;;44.53;26.00;;;4.60;99.90;;;;;;5117304;28;20176;-88
2023/01/29 01:38:57;;;;;;;39.47;24.02;;;4.60;99.90;;;;;;5108782;28;20447;-88
2023/01/29 01:41:23;;;;;;;41.30;25.70;;;4.70;99.90;;;;;;5123867;28;20565;-88
2023/01/29 01:43:54;;;;;;;33.80;20.43;;;4.60;99.90;;;;;;5097733;28;20203;-88
2023/01/29 01:46:21;;;;;;;30.05;16.50;;;4.60;99.90;;;;;;5097451;28;20259;-85
2023/01/29 01:48:53;;;;;;;28.75;17.23;;;4.60;99.90;;;;;;5097207;28;20200;-85
2023/01/29 01:51:20;;;;;;;26.05;15.88;;;4.50;99.90;;;;;;5115591;28;20625;-85
2023/01/29 01:54:03;;;;;;;28.02;15.43;;;4.50;99.90;;;;;;5115225;28;20268;-84
2023/01/29 01:56:39;;;;;;;30.55;16.15;;;4.50;99.90;;;;;;5097158;28;20168;-89
2023/01/29 01:59:08;;;;;;;24.83;16.42;;;4.50;99.90;;;;;;5115825;28;20678;-85
2023/01/29 02:01:37;;;;;;;26.40;15.02;;;4.40;99.90;;;;;;5114967;28;20182;-85
2023/01/29 02:09:52;;;;;;;27.08;15.15;;;4.40;99.90;;;;;;5118140;28;20235;-85
2023/01/29 02:12:18;;;;;;;26.63;17.25;;;4.40;99.90;;;;;;5118895;28;20711;-89
2023/01/29 02:14:44;;;;;;;27.50;16.40;;;4.50;99.90;;;;;;5118182;28;20254;-89
2023/01/29 02:17:13;;;;;;;26.80;15.33;;;4.40;99.90;;;;;;5117353;28;20223;-85
2023/01/29 02:20:16;;;;;;;27.52;15.88;;;4.40;99.90;;;;;;5097055;28;20848;-88
2023/01/29 02:22:58;;;;;;;25.45;14.38;;;4.40;99.90;;;;;;5096595;28;20260;-89
2023/01/29 02:25:48;;;;;;;25.67;14.95;;;4.30;99.90;;;;;;5096760;28;20241;-89
2023/01/29 02:28:31;;;;;;;27.88;14.57;;;4.20;99.90;;;;;;5096445;28;20195;-88
2023/01/29 02:31:19;;;;;;;28.52;15.77;;;4.20;99.90;;;;;;5114696;28;20167;-86
2023/01/29 02:34:20;;;;;;;30.27;16.45;;;4.20;99.90;;;;;;5096317;28;20330;-88
2023/01/29 02:36:54;;;;;;;28.05;15.50;;;4.20;99.90;;;;;;5114379;28;20171;-89
2023/01/29 02:39:50;;;;;;;24.67;14.75;;;4.20;99.90;;;;;;5115276;28;20521;-85
2023/01/29 02:42:24;;;;;;;24.02;15.45;;;4.20;99.90;;;;;;5096405;28;20204;-86
2023/01/29 02:44:58;;;;;;;27.88;16.73;;;4.20;99.90;;;;;;5096264;28;20636;-84
2023/01/29 02:47:53;;;;;;;29.58;16.15;;;4.20;99.90;;;;;;5096194;28;20207;-85
2023/01/29 02:50:25;;;;;;;26.63;14.32;;;4.20;99.90;;;;;;5063246;28;20230;-89
2023/01/29 02:53:17;;;;;;;29.92;14.95;;;4.20;99.90;;;;;;5114452;28;20218;-88
2023/01/29 02:55:57;;;;;;;26.38;15.70;;;4.20;99.90;;;;;;5098443;28;20679;-85
2023/01/29 02:58:56;;;;;;;28.50;15.82;;;4.20;99.90;;;;;;5121221;28;20205;-86
2023/01/29 03:01:50;;;;;;;23.15;13.95;;;4.20;99.90;;;;;;5107942;28;20275;-85
2023/01/29 03:04:21;;;;;;;26.98;15.85;;;4.20;99.90;;;;;;5096501;28;20199;-89
2023/01/29 03:07:05;;;;;;;24.70;14.68;;;4.10;99.90;;;;;;5114439;28;20188;-85
2023/01/29 03:09:38;;;;;;;26.30;15.00;;;4.10;99.90;;;;;;5114500;28;20215;-85
2023/01/29 03:12:27;;;;;;;26.90;16.13;;;4.20;99.90;;;;;;5114743;28;20208;-85
2023/01/29 03:15:11;;;;;;;26.50;15.45;;;4.20;99.90;;;;;;5100631;28;20188;-88
2023/01/29 03:17:53;;;;;;;28.45;16.50;;;4.20;99.90;;;;;;5099978;28;20195;-85
2023/01/29 03:20:25;;;;;;;26.10;14.52;;;4.30;99.90;;;;;;5100132;28;20182;-85
2023/01/29 03:22:57;;;;;;;32.75;16.50;;;4.30;99.90;;;;;;5118206;28;20187;-85
2023/01/29 03:34:06;;;;;;;28.63;13.57;;;4.20;99.90;;;;;;5128066;28;20233;-85
2023/01/29 03:36:44;;;;;;;25.45;14.38;;;4.10;99.90;;;;;;5118274;28;20209;-85
2023/01/29 03:39:12;;;;;;;30.90;15.35;;;4.10;99.90;;;;;;5099934;28;20231;-88
2023/01/29 03:42:08;;;;;;;27.88;15.05;;;4.00;99.90;;;;;;5117929;28;20176;-85
2023/01/29 03:44:39;;;;;;;30.50;15.40;;;4.10;99.90;;;;;;5099645;28;20236;-89
2023/01/29 03:47:17;;;;;;;26.38;14.68;;;4.00;99.90;;;;;;5099631;28;20179;-88
2023/01/29 03:50:04;;;;;;;26.70;14.23;;;4.10;99.90;;;;;;5099788;28;20524;-86
2023/01/29 03:52:43;;;;;;;22.83;13.45;;;4.10;99.90;;;;;;5099475;28;20268;-89
2023/01/29 03:55:18;;;;;;;28.20;15.15;;;4.00;99.90;;;;;;5118207;28;20628;-89
2023/01/29 03:57:54;;;;;;;25.25;15.10;;;4.00;99.90;;;;;;5099304;28;20690;-90
2023/01/29 04:00:29;;;;;;;28.13;16.33;;;4.10;99.90;;;;;;5117855;28;20213;-89
2023/01/29 04:03:39;;;;;;;25.42;14.63;;;4.00;99.90;;;;;;5117526;28;20247;-85
2023/01/29 04:06:22;;;;;;;27.75;14.57;;;4.00;99.90;;;;;;5079345;28;20520;-86
2023/01/29 04:09:02;;;;;;;25.38;13.45;;;4.00;99.90;;;;;;5100489;28;20576;-86
2023/01/29 04:11:28;;;;;;;28.83;15.00;;;4.10;99.90;;;;;;5099249;28;20172;-89
2023/01/29 04:13:56;;;;;;;29.90;16.15;;;4.10;99.90;;;;;;5117308;28;20211;-89
2023/01/29 04:16:30;;;;;;;29.35;14.90;;;4.00;99.90;;;;;;5098989;28;20171;-85
2023/01/29 04:18:56;;;;;;;27.40;15.40;;;4.00;99.90;;;;;;5117213;28;20304;-85
2023/01/29 04:21:23;;;;;;;29.35;15.55;;;4.00;99.90;;;;;;5099217;28;20207;-87
2023/01/29 04:23:49;;;;;;;27.05;13.90;;;4.00;99.90;;;;;;5097641;28;20721;-89
2023/01/29 04:26:23;;;;;;;27.57;14.53;;;4.00;99.90;;;;;;5117384;28;20172;-87
2023/01/29 04:29:26;;;;;;;27.42;15.70;;;4.00;99.90;;;;;;5117086;28;20278;-84
2023/01/29 04:31:59;;;;;;;25.40;13.98;;;4.00;99.90;;;;;;5098680;28;20207;-89
2023/01/29 04:34:46;;;;;;;23.33;13.55;;;4.00;99.90;;;;;;5099207;28;20645;-85
2023/01/29 04:37:41;;;;;;;23.60;13.40;;;4.00;99.90;;;;;;5099618;28;20302;-86
2023/01/29 04:40:14;;;;;;;28.50;14.45;;;4.10;99.90;;;;;;5117798;28;20197;-87
2023/01/29 04:42:49;;;;;;;21.13;12.43;;;4.00;99.90;;;;;;5116653;28;20192;-89
2023/01/29 04:45:23;;;;;;;23.88;12.60;;;4.10;99.90;;;;;;5116565;28;20178;-89
2023/01/29 04:47:59;;;;;;;19.65;11.55;;;4.10;99.90;;;;;;5116625;28;20190;-89
2023/01/29 04:50:48;;;;;;;22.42;11.88;;;4.10;99.90;;;;;;5116562;28;20164;-88
2023/01/29 04:53:41;;;;;;;22.77;13.07;;;4.10;99.90;;;;;;5098450;28;20230;-85
2023/01/29 04:56:19;;;;;;;19.48;11.65;;;4.10;99.90;;;;;;5065172;28;20523;-88
2023/01/29 04:58:57;;;;;;;26.35;14.77;;;4.00;99.90;;;;;;5116792;28;20201;-85
2023/01/29 05:01:27;;;;;;;23.98;13.52;;;3.90;99.90;;;;;;5116508;28;20160;-88
2023/01/29 05:03:54;;;;;;;28.73;15.52;;;3.90;99.90;;;;;;5116687;28;20291;-85
2023/01/29 05:06:21;;;;;;;26.40;15.15;;;3.90;99.90;;;;;;5100116;28;20176;-85
2023/01/29 05:08:48;;;;;;;22.15;12.15;;;3.90;99.90;;;;;;5101194;28;20319;-90
2023/01/29 05:11:16;;;;;;;20.15;12.80;;;3.90;99.90;;;;;;5116083;28;20191;-85
2023/01/29 05:13:42;;;;;;;24.30;12.20;;;4.00;99.90;;;;;;5116041;28;20223;-89
2023/01/29 05:16:17;;;;;;;26.57;14.17;;;4.10;99.90;;;;;;5098011;28;20544;-85
2023/01/29 05:18:43;;;;;;;25.70;12.52;;;4.10;99.90;;;;;;5116285;28;20526;-88
2023/01/29 05:21:09;;;;;;;19.40;11.77;;;4.10;99.90;;;;;;5115952;28;20168;-85
2023/01/29 05:23:35;;;;;;;25.17;12.45;;;4.10;99.90;;;;;;5115873;28;20198;-85
2023/01/29 05:26:01;;;;;;;24.23;13.00;;;4.10;99.90;;;;;;5116135;28;20172;-89
2023/01/29 05:28:27;;;;;;;25.08;12.90;;;4.10;99.90;;;;;;5097636;28;20286;-88
2023/01/29 05:30:55;;;;;;;21.27;12.40;;;4.00;99.90;;;;;;5098168;28;20627;-87
2023/01/29 05:33:30;;;;;;;23.30;12.52;;;4.00;99.90;;;;;;5115760;28;20211;-87
2023/01/29 05:35:58;;;;;;;20.23;11.82;;;4.00;99.90;;;;;;5115580;28;20620;-88
2023/01/29 05:38:24;;;;;;;23.30;11.95;;;4.00;99.90;;;;;;5097504;28;20294;-88
2023/01/29 05:40:49;;;;;;;22.53;12.33;;;4.10;99.90;;;;;;5115928;28;20232;-88
2023/01/29 05:43:17;;;;;;;20.73;11.97;;;4.00;99.90;;;;;;5115710;28;20424;-85
2023/01/29 05:45:50;;;;;;;18.67;11.70;;;4.00;99.90;;;;;;5123727;28;20199;-86
2023/01/29 05:48:16;;;;;;;24.67;12.68;;;4.00;99.90;;;;;;5121101;28;20215;-89
2023/01/29 05:50:42;;;;;;;19.27;11.17;;;4.00;99.90;;;;;;5103069;28;20218;-85
2023/01/29 05:53:08;;;;;;;23.60;11.73;;;4.00;99.90;;;;;;5118603;28;20564;-87
2023/01/29 05:55:33;;;;;;;23.60;12.48;;;4.00;99.90;;;;;;5105477;28;20195;-83
2023/01/29 05:57:59;;;;;;;17.00;11.03;;;4.10;99.90;;;;;;5098096;28;20191;-89
2023/01/29 06:00:25;;;;;;;25.73;12.50;;;4.10;99.90;;;;;;5115569;28;20176;-88
2023/01/29 06:02:51;;;;;;;20.70;11.18;;;4.00;99.90;;;;;;5096848;28;20195;-86
2023/01/29 06:05:17;;;;;;;23.83;12.90;;;4.00;99.90;;;;;;5097288;28;20183;-87
2023/01/29 06:07:45;;;;;;;23.10;11.87;;;4.00;99.90;;;;;;5115148;28;20187;-89
2023/01/29 06:10:14;;;;;;;19.70;11.48;;;3.90;99.90;;;;;;5096773;28;20767;-85
2023/01/29 06:12:40;;;;;;;22.08;11.77;;;3.90;99.90;;;;;;5114801;28;20260;-89
2023/01/29 06:15:07;;;;;;;19.95;12.10;;;3.90;99.90;;;;;;5114847;28;20221;-89
2023/01/29 06:17:34;;;;;;;20.65;11.23;;;3.90;99.90;;;;;;5097009;28;20280;-89
2023/01/29 06:19:59;;;;;;;26.20;13.13;;;3.90;99.90;;;;;;5115449;28;20183;-89
2023/01/29 06:22:25;;;;;;;19.23;10.83;;;3.80;99.90;;;;;;5096950;28;20550;-85
2023/01/29 06:24:51;;;;;;;19.27;11.10;;;3.90;99.90;;;;;;5096924;28;20488;-89
2023/01/29 06:27:16;;;;;;;18.67;11.87;;;3.80;99.90;;;;;;5115361;28;20283;-86
2023/01/29 06:29:42;;;;;;;24.67;11.10;;;3.80;99.90;;;;;;5096858;28;20244;-89
2023/01/29 06:32:08;;;;;;;20.27;11.33;;;3.90;99.90;;;;;;5096604;28;20688;-88
2023/01/29 06:34:34;;;;;;;21.80;11.50;;;3.90;99.90;;;;;;5096632;28;20191;-89
2023/01/29 06:37:00;;;;;;;19.47;11.00;;;3.90;99.90;;;;;;5114822;28;20861;-85
2023/01/29 06:39:25;;;;;;;25.43;14.70;;;4.00;99.90;;;;;;5098893;28;20456;-85
2023/01/29 06:41:51;;;;;;;26.63;14.80;;;4.00;99.90;;;;;;5114476;28;20407;-88
2023/01/29 06:44:17;;;;;;;26.07;15.63;;;4.10;99.90;;;;;;5114414;28;20174;-89
2023/01/29 06:46:42;;;;;;;38.20;19.30;;;4.10;99.90;;;;;;5096164;28;20260;-87
2023/01/29 06:49:08;;;;;;;29.57;18.27;;;4.00;99.90;;;;;;5114143;28;20191;-88
2023/01/29 06:51:34;;;;;;;36.90;20.27;;;4.00;99.90;;;;;;5114343;28;20185;-83
2023/01/29 06:54:00;;;;;;;40.73;23.43;;;4.00;99.90;;;;;;5114068;28;20215;-88
2023/01/29 06:56:26;;;;;;;38.38;20.63;;;4.00;99.90;;;;;;5114572;28;20436;-84
2023/01/29 06:58:52;;;;;;;37.70;21.63;;;4.00;99.90;;;;;;5114589;28;20242;-90
2023/01/29 07:01:18;;;;;;;35.97;19.63;;;4.00;99.90;;;;;;5114575;28;20225;-88
2023/01/29 07:03:44;;;;;;;31.23;17.33;;;4.10;99.90;;;;;;5096205;28;20660;-85
2023/01/29 07:06:10;;;;;;;35.13;18.43;;;4.00;99.90;;;;;;5096129;28;20457;-85
2023/01/29 07:08:38;;;;;;;26.90;16.23;;;4.00;99.90;;;;;;5095898;28;20202;-89
2023/01/29 07:11:04;;;;;;;22.02;12.52;;;4.00;99.90;;;;;;5114387;28;20172;-89
2023/01/29 07:13:30;;;;;;;23.55;13.23;;;4.10;99.90;;;;;;5098957;28;20709;-84
2023/01/29 07:16:00;;;;;;;22.00;12.57;;;4.20;99.90;;;;;;5096236;28;20262;-88
2023/01/29 07:18:27;;;;;;;23.33;13.70;;;4.20;99.90;;;;;;5114366;28;20282;-85
2023/01/29 07:20:54;;;;;;;19.50;12.50;;;4.20;99.90;;;;;;5096047;28;20176;-89
2023/01/29 07:23:20;;;;;;;22.13;11.10;;;4.30;99.90;;;;;;5114336;28;20693;-86
2023/01/29 07:25:48;;;;;;;24.45;13.77;;;4.30;99.90;;;;;;5114536;28;20300;-86
2023/01/29 07:28:17;;;;;;;19.90;12.30;;;4.20;99.90;;;;;;5114111;28;20544;-85
2023/01/29 07:30:43;;;;;;;22.92;12.35;;;4.20;99.90;;;;;;5114444;28;20216;-85
2023/01/29 07:33:10;;;;;;;40.72;24.90;;;4.30;99.90;;;;;;5095962;28;20222;-89
2023/01/29 07:35:41;;;;;;;39.72;24.40;;;4.30;99.90;;;;;;5113477;28;20558;-89
2023/01/29 07:38:09;;;;;;;33.70;20.45;;;4.40;99.90;;;;;;5096045;28;20207;-88
2023/01/29 07:40:35;;;;;;;22.75;13.85;;;4.40;99.90;;;;;;5096136;28;20186;-85
2023/01/29 07:43:02;;;;;;;36.88;19.10;;;4.40;99.90;;;;;;5114200;28;20640;-85
2023/01/29 07:45:29;;;;;;;30.45;15.90;;;4.40;99.90;;;;;;5096114;28;20180;-89
2023/01/29 07:47:55;;;;;;;57.22;28.45;;;4.50;99.90;;;;;;5096113;28;20204;-89
2023/01/29 07:50:22;;;;;;;38.17;21.70;;;4.50;99.90;;;;;;5096150;28;20172;-85
2023/01/29 07:52:48;;;;;;;32.55;20.77;;;4.50;99.90;;;;;;5101356;28;20215;-89
2023/01/29 07:55:14;;;;;;;21.88;13.40;;;4.50;99.90;;;;;;5117394;28;20180;-84
2023/01/29 07:57:40;;;;;;;20.57;12.17;;;4.60;99.90;;;;;;5095503;28;20192;-85
2023/01/29 08:00:07;;;;;;;24.37;14.00;;;4.60;99.90;;;;;;5099709;28;20839;-89
2023/01/29 08:02:32;;;;;;;24.17;14.30;;;4.70;99.90;;;;;;5117523;28;20192;-85
2023/01/29 08:04:58;;;;;;;21.73;13.60;;;4.60;99.90;;;;;;5118114;28;20168;-89
2023/01/29 08:07:24;;;;;;;21.30;13.80;;;4.70;99.90;;;;;;5099317;28;20286;-85
2023/01/29 08:09:49;;;;;;;30.97;18.53;;;4.80;99.90;;;;;;5117524;28;20216;-90
2023/01/29 08:12:15;;;;;;;26.03;15.33;;;4.90;99.90;;;;;;5099139;28;20288;-84
2023/01/29 08:14:41;;;;;;;26.23;15.43;;;5.00;99.90;;;;;;5099303;28;20282;-89
2023/01/29 08:17:07;;;;;;;21.85;12.98;;;5.00;99.90;;;;;;5117383;28;20195;-89
2023/01/29 08:19:32;;;;;;;21.40;13.50;;;5.10;99.90;;;;;;5117532;28;20179;-88
2023/01/29 08:21:58;;;;;;;16.50;10.20;;;5.20;99.90;;;;;;5117200;28;20176;-89
2023/01/29 08:24:24;;;;;;;24.67;11.50;;;5.30;99.90;;;;;;5117639;28;20515;-89
2023/01/29 08:26:49;;;;;;;17.97;11.43;;;5.40;99.90;;;;;;5117191;28;20176;-85
2023/01/29 08:29:15;;;;;;;18.47;11.53;;;5.40;99.90;;;;;;5118612;28;20171;-85
2023/01/29 08:31:41;;;;;;;18.50;10.70;;;5.40;99.90;;;;;;5122225;28;20172;-88
2023/01/29 08:34:06;;;;;;;18.70;10.53;;;5.40;99.90;;;;;;5098994;28;20199;-88
2023/01/29 08:36:33;;;;;;;18.43;11.40;;;5.30;99.90;;;;;;5098881;28;20176;-86
2023/01/29 08:38:59;;;;;;;17.80;10.10;;;5.30;99.90;;;;;;5117178;28;20191;-89
2023/01/29 08:41:24;;;;;;;20.33;11.00;;;5.20;99.90;;;;;;5099142;28;20193;-86
2023/01/29 08:43:50;;;;;;;23.17;12.33;;;5.20;99.90;;;;;;5098682;28;20195;-89
2023/01/29 08:46:16;;;;;;;21.40;12.50;;;5.10;99.90;;;;;;5116635;28;20175;-84
2023/01/29 08:48:42;;;;;;;18.53;11.43;;;5.10;99.90;;;;;;5098545;28;20256;-87
2023/01/29 08:51:08;;;;;;;29.70;18.20;;;5.10;99.90;;;;;;5116763;28;20604;-85
2023/01/29 08:53:34;;;;;;;25.33;14.45;;;5.20;99.90;;;;;;5116354;27;20625;-89
2023/01/29 08:56:00;;;;;;;26.63;15.10;;;5.10;99.90;;;;;;5098335;28;20175;-84
2023/01/29 08:58:25;;;;;;;59.60;38.00;;;5.20;99.90;;;;;;5116275;28;20440;-84
2023/01/29 09:00:51;;;;;;;49.50;29.90;;;5.20;99.90;;;;;;5098232;28;20408;-88
2023/01/29 09:03:17;;;;;;;22.50;13.80;;;5.30;99.90;;;;;;5116406;28;20200;-89
2023/01/29 09:05:42;;;;;;;22.63;12.30;;;5.30;99.90;;;;;;5099828;28;20457;-85
2023/01/29 09:08:09;;;;;;;20.40;13.50;;;5.30;99.90;;;;;;5121981;28;20198;-88
2023/01/29 09:10:35;;;;;;;22.88;12.55;;;5.30;99.90;;;;;;5123939;28;20607;-85
2023/01/29 09:13:00;;;;;;;23.60;11.53;;;5.30;99.90;;;;;;5116455;28;20211;-85
2023/01/29 09:15:26;;;;;;;18.70;11.53;;;5.30;99.90;;;;;;5116281;28;20173;-87
2023/01/29 09:17:52;;;;;;;20.73;11.77;;;5.40;99.90;;;;;;5116115;28;20195;-86
2023/01/29 09:20:18;;;;;;;17.67;10.30;;;5.40;99.90;;;;;;5115984;28;20640;-88
2023/01/29 09:22:45;;;;;;;18.63;10.05;;;5.40;99.90;;;;;;5116104;28;20200;-86
2023/01/29 09:25:10;;;;;;;19.13;10.57;;;5.40;99.90;;;;;;5097766;28;20176;-89
2023/01/29 09:27:36;;;;;;;19.10;9.83;;;5.40;99.90;;;;;;5097605;28;20214;-88
2023/01/29 09:30:04;;;;;;;17.57;10.40;;;5.50;99.90;;;;;;5115919;28;20637;-88
2023/01/29 09:32:30;;;;;;;19.33;9.98;;;5.50;99.90;;;;;;5115676;28;20220;-89
2023/01/29 09:34:56;;;;;;;22.90;14.55;;;5.50;99.90;;;;;;5116252;28;20172;-84
2023/01/29 09:37:22;;;;;;;25.90;13.17;;;5.50;99.90;;;;;;5115582;28;20196;-86
2023/01/29 09:39:51;;;;;;;20.73;12.40;;;5.50;99.90;;;;;;5097838;28;20416;-85
2023/01/29 09:42:40;;;;;;;20.35;10.63;;;5.50;99.90;;;;;;5097176;28;20979;-89
2023/01/29 09:45:19;;;;;;;22.95;15.27;;;5.50;99.90;;;;;;5097945;28;20597;-85
2023/01/29 09:47:47;;;;;;;19.95;12.75;;;5.50;99.90;;;;;;5115334;28;20672;-85
2023/01/29 09:50:36;;;;;;;38.40;24.95;;;5.50;99.90;;;;;;5097252;28;20216;-85
2023/01/29 09:53:20;;;;;;;22.50;16.45;;;5.50;99.90;;;;;;5115329;28;20222;-88
2023/01/29 09:55:51;;;;;;;19.65;11.20;;;5.50;99.90;;;;;;5115422;28;20163;-89
2023/01/29 09:58:32;;;;;;;23.92;12.73;;;5.50;99.90;;;;;;5097331;28;20286;-88
2023/01/29 10:01:36;;;;;;;50.70;25.60;;;5.50;99.90;;;;;;5115355;28;20172;-89
2023/01/29 10:04:19;;;;;;;39.13;25.00;;;5.50;99.90;;;;;;5115692;28;20195;-86
2023/01/29 10:06:48;;;;;;;24.55;12.07;;;5.50;99.90;;;;;;5097442;28;20182;-85
2023/01/29 10:09:27;;;;;;;24.70;13.93;;;5.50;99.90;;;;;;5102753;28;20627;-85
2023/01/29 10:12:31;;;;;;;19.20;13.45;;;5.40;99.90;;;;;;5096963;28;20262;-86
2023/01/29 10:14:57;;;;;;;19.52;11.38;;;5.50;99.90;;;;;;5063561;28;20196;-89
2023/01/29 10:18:17;;;;;;;21.27;11.70;;;5.50;99.90;;;;;;5115042;28;20199;-89
2023/01/29 10:21:03;;;;;;;24.88;13.93;;;5.50;99.90;;;;;;5095896;28;20196;-86
2023/01/29 10:23:52;;;;;;;19.63;12.30;;;5.50;99.90;;;;;;5096651;28;20195;-88
2023/01/29 10:26:22;;;;;;;25.40;13.95;;;5.40;99.90;;;;;;5096860;28;20172;-89
2023/01/29 10:28:51;;;;;;;21.15;12.85;;;5.40;99.90;;;;;;5096823;28;20199;-85
2023/01/29 10:31:37;;;;;;;22.92;14.20;;;5.40;99.90;;;;;;5096619;28;20191;-85
2023/01/29 10:34:15;;;;;;;21.52;14.30;;;5.40;99.90;;;;;;5096632;28;20318;-89
2023/01/29 10:36:46;;;;;;;29.77;15.55;;;5.40;99.90;;;;;;5115015;28;20159;-89
2023/01/29 10:39:32;;;;;;;20.02;13.90;;;5.40;99.90;;;;;;5115055;28;20175;-89
2023/01/29 10:42:13;;;;;;;23.98;13.52;;;5.40;99.90;;;;;;5115657;28;20184;-86
2023/01/29 10:44:38;;;;;;;19.58;11.43;;;5.40;99.90;;;;;;5103009;28;20172;-89
2023/01/29 10:47:16;;;;;;;21.27;12.77;;;5.40;99.90;;;;;;5118989;28;20183;-89
2023/01/29 10:49:57;;;;;;;22.05;12.35;;;5.40;99.90;;;;;;5115329;28;20186;-86
2023/01/29 10:52:32;;;;;;;21.45;13.82;;;5.40;99.90;;;;;;5114401;28;20215;-85
2023/01/29 10:55:26;;;;;;;20.63;12.60;;;5.50;99.90;;;;;;5096784;28;20203;-89
2023/01/29 10:58:36;;;;;;;24.98;14.73;;;5.40;99.90;;;;;;5114533;28;20240;-88
2023/01/29 11:01:02;;;;;;;39.53;21.88;;;5.40;99.90;;;;;;5091400;28;20625;-85
2023/01/29 11:03:32;;;;;;;63.30;37.80;;;5.50;99.90;;;;;;5096346;28;20199;-85
2023/01/29 11:06:20;;;;;;;30.63;20.65;;;5.50;99.90;;;;;;5114497;28;20156;-86
2023/01/29 11:08:55;;;;;;;23.88;15.45;;;5.50;99.90;;;;;;5114370;28;20207;-86
2023/01/29 11:11:30;;;;;;;20.88;13.48;;;5.50;99.90;;;;;;5096302;28;20186;-89
2023/01/29 11:14:12;;;;;;;18.83;13.18;;;5.40;99.90;;;;;;5114452;28;20219;-85
2023/01/29 11:16:44;;;;;;;26.83;14.70;;;5.40;99.90;;;;;;5114316;28;20175;-89
2023/01/29 11:19:10;;;;;;;22.70;13.15;;;5.40;99.90;;;;;;5096367;28;20234;-85
2023/01/29 11:22:00;;;;;;;42.45;24.63;;;5.40;99.90;;;;;;5114197;28;20656;-88
2023/01/29 11:24:26;;;;;;;23.83;14.70;;;5.40;99.90;;;;;;5114906;28;20219;-86
2023/01/29 11:26:56;;;;;;;27.40;15.15;;;5.40;99.90;;;;;;5099032;28;20172;-89
2023/01/29 11:29:33;;;;;;;31.98;18.40;;;5.40;99.90;;;;;;5102106;28;20696;-89
2023/01/29 11:32:02;;;;;;;36.75;21.60;;;5.40;99.90;;;;;;5114120;28;20201;-89
2023/01/29 11:34:29;;;;;;;30.48;18.05;;;5.40;99.90;;;;;;5117298;28;20172;-85
2023/01/29 11:37:15;;;;;;;24.17;15.93;;;5.40;99.90;;;;;;5100126;28;20655;-89
2023/01/29 11:39:46;;;;;;;24.52;13.77;;;5.40;99.90;;;;;;5118582;28;20175;-89
2023/01/29 11:42:20;;;;;;;25.52;15.13;;;5.40;99.90;;;;;;5117743;28;20195;-89
2023/01/29 11:44:45;;;;;;;24.88;15.57;;;5.40;99.90;;;;;;5118351;28;20168;-85
2023/01/29 11:47:25;;;;;;;25.43;14.40;;;5.30;99.90;;;;;;5117843;28;20275;-85
2023/01/29 11:50:01;;;;;;;30.42;15.82;;;5.30;99.90;;;;;;5117916;28;20411;-89
2023/01/29 11:52:36;;;;;;;34.67;20.33;;;5.30;99.90;;;;;;5117705;28;20211;-90
2023/01/29 11:55:12;;;;;;;93.88;53.22;;;5.30;99.90;;;;;;5118398;28;20171;-85
2023/01/29 11:57:41;;;;;;;29.60;16.60;;;5.20;99.90;;;;;;5117698;28;20583;-88
2023/01/29 12:00:16;;;;;;;28.15;16.08;;;5.20;99.90;;;;;;5099910;28;20697;-85
2023/01/29 12:02:46;;;;;;;25.88;13.60;;;5.20;99.90;;;;;;5117363;28;20672;-89
2023/01/29 12:05:32;;;;;;;22.83;14.50;;;5.20;99.90;;;;;;5118002;28;20178;-89
2023/01/29 12:08:00;;;;;;;27.92;16.45;;;5.20;99.90;;;;;;5110312;28;20202;-86
2023/01/29 12:10:38;;;;;;;32.88;17.30;;;5.20;99.90;;;;;;5125511;28;20216;-89
2023/01/29 12:13:14;;;;;;;29.42;16.02;;;5.20;99.90;;;;;;5119402;28;20749;-88
2023/01/29 12:15:43;;;;;;;28.30;15.65;;;5.20;99.90;;;;;;5099161;28;20176;-85
2023/01/29 12:18:19;;;;;;;22.75;13.50;;;5.10;99.90;;;;;;5117231;28;20516;-89
2023/01/29 12:21:01;;;;;;;24.98;13.88;;;5.10;99.90;;;;;;5099069;28;20168;-85
2023/01/29 12:24:06;;;;;;;27.48;15.88;;;5.10;99.90;;;;;;5117327;28;20246;-84
2023/01/29 12:26:45;;;;;;;29.50;15.52;;;5.10;99.90;;;;;;5098940;28;20207;-85
2023/01/29 12:29:18;;;;;;;28.50;16.63;;;5.10;99.90;;;;;;5099297;28;20183;-85
2023/01/29 12:32:08;;;;;;;44.72;20.98;;;5.00;99.90;;;;;;5099197;28;20574;-89
2023/01/29 12:35:00;;;;;;;35.70;19.38;;;5.00;99.90;;;;;;5116790;28;20241;-89
2023/01/29 12:37:50;;;;;;;165.35;59.70;;;5.00;99.90;;;;;;5098549;28;20688;-84
2023/01/29 12:40:17;;;;;;;44.88;29.23;;;4.90;99.90;;;;;;5116825;28;20176;-86
2023/01/29 12:42:51;;;;;;;29.27;17.60;;;4.90;99.90;;;;;;5098583;28;20196;-89
2023/01/29 12:45:19;;;;;;;29.92;17.70;;;4.90;99.90;;;;;;5097914;28;20172;-90
2023/01/29 12:47:53;;;;;;;29.77;17.88;;;4.90;99.90;;;;;;5125547;28;20188;-88
2023/01/29 12:50:25;;;;;;;121.00;59.53;;;4.90;99.90;;;;;;5101250;28;20178;-89
2023/01/29 12:53:34;;;;;;;49.10;28.48;;;4.90;99.90;;;;;;5105168;28;20211;-89
2023/01/29 12:56:10;;;;;;;63.35;34.17;;;4.90;99.90;;;;;;5103043;28;20190;-85
2023/01/29 12:58:44;;;;;;;60.83;38.55;;;4.90;99.90;;;;;;5123845;28;20264;-88
2023/01/29 13:01:39;;;;;;;38.38;22.25;;;4.90;99.90;;;;;;5126457;28;20177;-87
2023/01/29 13:04:44;;;;;;;36.95;21.48;;;4.90;99.90;;;;;;5102623;28;20202;-89
2023/01/29 13:07:18;;;;;;;51.75;29.00;;;4.80;99.90;;;;;;5022347;28;20270;-87
2023/01/29 13:09:50;;;;;;;62.92;35.80;;;4.80;99.90;;;;;;5003760;28;20238;-88
2023/01/29 13:12:19;;;;;;;45.95;26.92;;;4.70;99.90;;;;;;5055128;28;20276;-89
2023/01/29 13:15:02;;;;;;;37.67;20.05;;;4.70;99.90;;;;;;5116645;28;20171;-90
2023/01/29 13:17:50;;;;;;;36.85;21.70;;;4.70;99.90;;;;;;5116209;28;20244;-88
2023/01/29 13:20:27;;;;;;;34.80;19.15;;;4.70;99.90;;;;;;5098020;28;20193;-88
2023/01/29 13:22:57;;;;;;;34.80;19.60;;;4.60;99.90;;;;;;5116043;28;20187;-89
2023/01/29 13:25:23;;;;;;;30.27;18.38;;;4.60;99.90;;;;;;5116027;28;20175;-88
2023/01/29 13:27:49;;;;;;;28.73;17.90;;;4.50;99.90;;;;;;5097688;28;20200;-89
2023/01/29 13:30:35;;;;;;;39.22;21.45;;;4.50;99.90;;;;;;5097867;28;20182;-88